createdAt,value
2017-08-05T00:00:24.913Z,1.90
2017-08-05T00:02:52.377Z,2.40
2017-08-05T00:05:23.723Z,1.83
2017-08-05T00:07:51.184Z,1.77
2017-08-05T00:10:18.661Z,1.97
2017-08-05T00:12:46.135Z,2.63
2017-08-05T00:15:13.589Z,2.20
2017-08-05T00:17:41.061Z,2.03
2017-08-05T00:20:08.521Z,1.80
2017-08-05T00:22:35.976Z,2.47
2017-08-05T00:25:03.443Z,1.97
2017-08-05T00:27:30.913Z,2.20
2017-08-05T00:29:58.385Z,2.50
2017-08-05T00:32:25.866Z,1.87
2017-08-05T00:34:53.313Z,2.00
2017-08-05T00:37:20.777Z,1.70
2017-08-05T00:39:48.243Z,1.90
2017-08-05T00:42:15.689Z,2.10
2017-08-05T00:44:43.148Z,1.67
2017-08-05T00:47:10.594Z,1.80
2017-08-05T00:49:45.764Z,2.90
2017-08-05T00:52:13.219Z,1.40
2017-08-05T00:54:40.660Z,1.70
2017-08-05T00:57:08.116Z,1.83
2017-08-05T00:59:35.574Z,2.10
2017-08-05T01:02:03.043Z,1.83
2017-08-05T01:04:30.506Z,1.63
2017-08-05T01:06:57.970Z,2.40
2017-08-05T01:09:25.430Z,1.93
2017-08-05T01:11:59.933Z,1.37
2017-08-05T01:14:28.170Z,1.70
2017-08-05T01:16:55.633Z,2.10
2017-08-05T01:19:23.092Z,2.83
2017-08-05T01:21:50.549Z,2.00
2017-08-05T01:24:18.015Z,2.00
2017-08-05T01:26:45.466Z,2.40
2017-08-05T01:29:12.929Z,1.90
2017-08-05T01:31:40.385Z,1.80
2017-08-05T01:34:07.845Z,1.80
2017-08-05T01:36:35.314Z,1.93
2017-08-05T01:39:02.784Z,1.70
2017-08-05T01:41:30.242Z,2.07
2017-08-05T01:43:57.690Z,2.03
2017-08-05T01:46:25.152Z,1.73
2017-08-05T01:48:52.617Z,2.60
2017-08-05T01:51:20.069Z,2.67
2017-08-05T01:53:47.509Z,1.80
2017-08-05T01:56:15.727Z,1.53
2017-08-05T01:58:43.180Z,2.10
2017-08-05T02:01:10.633Z,1.60
2017-08-05T02:03:38.096Z,1.37
2017-08-05T02:06:05.557Z,1.77
2017-08-05T02:08:33.016Z,2.97
2017-08-05T02:11:00.476Z,1.70
2017-08-05T02:13:27.934Z,1.77
2017-08-05T02:15:55.384Z,2.03
2017-08-05T02:18:23.609Z,2.90
2017-08-05T02:20:51.057Z,1.80
2017-08-05T02:23:18.520Z,1.93
2017-08-05T02:25:45.965Z,2.20
2017-08-05T02:28:13.425Z,1.93
2017-08-05T02:30:40.873Z,2.07
2017-08-05T02:33:09.089Z,2.07
2017-08-05T02:35:36.537Z,2.30
2017-08-05T02:38:03.988Z,2.33
2017-08-05T02:40:32.209Z,2.40
2017-08-05T02:42:59.648Z,2.13
2017-08-05T02:45:27.113Z,3.80
2017-08-05T02:47:54.560Z,2.37
2017-08-05T02:50:22.027Z,2.53
2017-08-05T02:52:49.476Z,1.90
2017-08-05T02:55:17.689Z,2.20
2017-08-05T02:57:45.148Z,2.40
2017-08-05T03:00:12.613Z,1.73
2017-08-05T03:02:40.073Z,2.33
2017-08-05T03:05:07.529Z,2.23
2017-08-05T03:07:35.024Z,2.17
2017-08-05T03:10:02.487Z,1.70
2017-08-05T03:12:29.944Z,1.53
2017-08-05T03:14:57.396Z,2.00
2017-08-05T03:17:24.857Z,2.83
2017-08-05T03:19:52.313Z,3.07
2017-08-05T03:22:19.775Z,2.03
2017-08-05T03:24:47.229Z,3.33
2017-08-05T03:27:14.685Z,2.00
2017-08-05T03:29:42.150Z,2.47
2017-08-05T03:32:09.594Z,2.33
2017-08-05T03:34:37.822Z,2.20
2017-08-05T03:37:05.273Z,1.80
2017-08-05T03:39:32.733Z,1.97
2017-08-05T03:42:00.193Z,1.93
2017-08-05T03:44:27.643Z,1.70
2017-08-05T03:46:58.693Z,2.20
2017-08-05T03:49:26.149Z,2.03
2017-08-05T03:51:53.604Z,3.10
2017-08-05T03:54:21.054Z,2.33
2017-08-05T03:56:49.267Z,1.90
2017-08-05T03:59:16.728Z,2.00
2017-08-05T04:01:44.176Z,2.40
2017-08-05T04:04:11.632Z,2.27
2017-08-05T04:06:39.836Z,1.90
2017-08-05T04:09:09.012Z,2.00
2017-08-05T04:11:37.220Z,2.40
2017-08-05T04:14:04.680Z,2.97
2017-08-05T04:16:32.147Z,2.50
2017-08-05T04:18:59.604Z,1.70
2017-08-05T04:21:27.054Z,2.23
2017-08-05T04:23:54.512Z,2.67
2017-08-05T04:26:21.970Z,2.50
2017-08-05T04:28:50.184Z,2.37
2017-08-05T04:31:19.341Z,2.47
2017-08-05T04:33:46.837Z,1.90
2017-08-05T04:36:14.297Z,2.10
2017-08-05T04:38:41.762Z,2.00
2017-08-05T04:41:09.225Z,1.80
2017-08-05T04:43:36.689Z,2.00
2017-08-05T04:46:04.164Z,1.70
2017-08-05T04:48:31.620Z,2.10
2017-08-05T04:50:59.077Z,2.00
2017-08-05T04:53:26.537Z,1.93
2017-08-05T04:55:54.000Z,2.30
2017-08-05T04:58:21.430Z,1.83
2017-08-05T05:00:48.869Z,2.10
2017-08-05T05:03:16.303Z,1.97
2017-08-05T05:05:43.740Z,2.60
2017-08-05T05:08:11.173Z,2.70
2017-08-05T05:10:39.394Z,2.33
2017-08-05T05:13:06.829Z,2.43
2017-08-05T05:15:35.124Z,2.80
2017-08-05T05:18:02.565Z,2.07
2017-08-05T05:20:30.762Z,2.03
2017-08-05T05:22:58.206Z,2.53
2017-08-05T05:25:26.417Z,2.33
2017-08-05T05:27:53.866Z,2.57
2017-08-05T05:30:21.320Z,2.50
2017-08-05T05:32:49.541Z,1.97
2017-08-05T05:35:16.996Z,2.53
2017-08-05T05:37:44.451Z,2.40
2017-08-05T05:40:11.912Z,2.70
2017-08-05T05:42:39.353Z,2.73
2017-08-05T05:45:06.804Z,2.57
2017-08-05T05:47:35.016Z,3.00
2017-08-05T05:50:02.474Z,2.10
2017-08-05T05:52:29.912Z,2.87
2017-08-05T05:54:58.132Z,1.60
2017-08-05T05:57:25.596Z,2.50
2017-08-05T05:59:53.043Z,2.00
2017-08-05T06:02:20.523Z,2.10
2017-08-05T06:04:47.974Z,2.03
2017-08-05T06:07:15.445Z,2.20
2017-08-05T06:09:42.895Z,1.73
2017-08-05T06:12:10.345Z,2.53
2017-08-05T06:14:37.794Z,1.73
2017-08-05T06:17:06.018Z,1.97
2017-08-05T06:19:33.486Z,3.67
2017-08-05T06:22:01.821Z,2.57
2017-08-05T06:24:29.281Z,2.60
2017-08-05T06:26:56.741Z,4.00
2017-08-05T06:29:24.957Z,3.00
2017-08-05T06:31:52.416Z,3.00
2017-08-05T06:34:19.876Z,3.10
2017-08-05T06:36:47.330Z,2.80
2017-08-05T06:39:14.772Z,2.90
2017-08-05T06:41:43.000Z,2.67
2017-08-05T06:44:11.445Z,3.40
2017-08-05T06:46:39.680Z,2.70
2017-08-05T06:49:07.136Z,2.27
2017-08-05T06:51:34.585Z,1.90
2017-08-05T06:54:02.037Z,2.70
2017-08-05T06:56:29.512Z,2.40
2017-08-05T06:58:56.961Z,2.43
2017-08-05T07:01:24.425Z,2.57
2017-08-05T07:03:51.872Z,2.17
2017-08-05T07:06:21.097Z,2.20
2017-08-05T07:08:48.571Z,2.13
2017-08-05T07:11:16.013Z,2.23
2017-08-05T07:13:43.475Z,3.20
2017-08-05T07:16:10.915Z,2.80
2017-08-05T07:18:39.165Z,2.37
2017-08-05T07:21:06.621Z,2.20
2017-08-05T07:23:34.076Z,2.20
2017-08-05T07:26:01.547Z,2.43
2017-08-05T07:28:29.158Z,2.93
2017-08-05T07:30:56.607Z,2.17
2017-08-05T07:33:24.821Z,2.70
2017-08-05T07:35:52.280Z,3.20
2017-08-05T07:38:19.732Z,2.40
2017-08-05T07:40:47.182Z,2.50
2017-08-05T07:43:14.638Z,3.40
2017-08-05T07:45:42.867Z,2.90
2017-08-05T07:48:10.317Z,3.57
2017-08-05T07:50:37.777Z,2.80
2017-08-05T07:53:05.221Z,3.10
2017-08-05T07:55:32.693Z,2.80
2017-08-05T07:58:00.138Z,3.60
2017-08-05T08:00:28.381Z,3.40
2017-08-05T08:02:55.843Z,3.40
2017-08-05T08:05:23.290Z,3.07
2017-08-05T08:07:50.775Z,3.07
2017-08-05T08:10:18.233Z,3.47
2017-08-05T08:12:45.745Z,2.90
2017-08-05T08:15:13.206Z,3.40
2017-08-05T08:17:40.668Z,4.40
2017-08-05T08:20:08.145Z,3.40
2017-08-05T08:22:35.615Z,4.00
2017-08-05T08:25:03.073Z,3.43
2017-08-05T08:27:30.516Z,2.83
2017-08-05T08:29:57.976Z,2.83
2017-08-05T08:32:26.869Z,3.10
2017-08-05T08:34:54.321Z,2.47
2017-08-05T08:37:21.792Z,2.57
2017-08-05T08:39:49.267Z,2.60
2017-08-05T08:42:16.716Z,2.87
2017-08-05T08:44:44.925Z,2.87
2017-08-05T08:47:12.389Z,2.30
2017-08-05T08:49:39.827Z,3.03
2017-08-05T08:52:07.274Z,2.60
2017-08-05T08:54:36.393Z,2.73
2017-08-05T08:57:04.613Z,2.67
2017-08-05T08:59:32.072Z,3.37
2017-08-05T09:01:59.529Z,3.17
2017-08-05T09:04:26.993Z,3.60
2017-08-05T09:06:54.449Z,3.30
2017-08-05T09:09:21.908Z,3.07
2017-08-05T09:11:49.365Z,3.67
2017-08-05T09:14:16.821Z,4.27
2017-08-05T09:16:45.500Z,3.93
2017-08-05T09:19:12.969Z,4.17
2017-08-05T09:21:40.433Z,3.60
2017-08-05T09:24:07.896Z,3.67
2017-08-05T09:26:35.357Z,4.97
2017-08-05T09:29:02.827Z,3.90
2017-08-05T09:31:30.301Z,4.47
2017-08-05T09:33:57.765Z,4.13
2017-08-05T09:36:25.225Z,4.10
2017-08-05T09:38:52.682Z,4.70
2017-08-05T09:41:20.141Z,5.27
2017-08-05T09:43:47.581Z,4.93
2017-08-05T09:46:15.805Z,4.90
2017-08-05T09:48:43.261Z,5.10
2017-08-05T09:51:10.713Z,5.40
2017-08-05T09:53:38.170Z,7.07
2017-08-05T09:56:05.633Z,6.80
2017-08-05T09:58:33.085Z,5.90
2017-08-05T10:01:01.974Z,7.97
2017-08-05T10:03:29.436Z,7.43
2017-08-05T10:05:56.938Z,6.97
2017-08-05T10:08:24.397Z,6.90
2017-08-05T10:10:51.863Z,7.53
2017-08-05T10:13:19.320Z,7.70
2017-08-05T10:15:46.771Z,6.40
2017-08-05T10:18:14.225Z,7.93
2017-08-05T10:20:41.754Z,8.30
2017-08-05T10:23:10.581Z,7.47
2017-08-05T10:25:38.044Z,7.00
2017-08-05T10:28:05.492Z,6.87
2017-08-05T10:30:33.769Z,7.30
2017-08-05T10:33:01.990Z,6.20
2017-08-05T10:35:29.445Z,5.13
2017-08-05T10:37:56.897Z,4.80
2017-08-05T10:40:24.337Z,5.10
2017-08-05T10:42:52.547Z,4.43
2017-08-05T10:45:20.002Z,4.53
2017-08-05T10:47:47.453Z,3.43
2017-08-05T10:50:14.905Z,4.10
2017-08-05T10:52:43.120Z,3.13
2017-08-05T10:55:10.584Z,2.87
2017-08-05T10:57:38.033Z,2.83
2017-08-05T11:00:05.476Z,2.70
2017-08-05T11:02:33.692Z,2.30
2017-08-05T11:05:01.153Z,2.47
2017-08-05T11:07:28.612Z,1.90
2017-08-05T11:09:56.048Z,2.50
2017-08-05T11:12:23.509Z,1.63
2017-08-05T11:14:50.953Z,1.50
2017-08-05T11:17:18.409Z,1.57
2017-08-05T11:19:45.869Z,1.50
2017-08-05T11:22:13.321Z,1.40
2017-08-05T11:24:40.777Z,1.20
2017-08-05T11:27:08.237Z,1.70
2017-08-05T11:29:35.681Z,2.13
2017-08-05T11:32:03.144Z,2.57
2017-08-05T11:34:30.594Z,3.40
2017-08-05T11:36:58.040Z,3.37
2017-08-05T11:39:25.503Z,4.10
2017-08-05T11:41:52.957Z,3.20
2017-08-05T11:44:20.413Z,4.43
2017-08-05T11:46:48.635Z,2.30
2017-08-05T11:49:16.124Z,2.50
2017-08-05T11:51:43.568Z,1.70
2017-08-05T11:54:11.028Z,1.97
2017-08-05T11:56:38.478Z,1.80
2017-08-05T11:59:05.928Z,1.70
2017-08-05T12:01:33.382Z,2.00
2017-08-05T12:04:00.843Z,1.40
2017-08-05T12:06:29.066Z,1.30
2017-08-05T12:08:56.552Z,1.00
2017-08-05T12:11:24.001Z,1.10
2017-08-05T12:13:52.968Z,0.97
2017-08-05T12:16:20.428Z,1.20
2017-08-05T12:18:47.922Z,0.90
2017-08-05T12:21:15.365Z,1.00
2017-08-05T12:23:42.821Z,0.97
2017-08-05T12:26:10.295Z,1.00
2017-08-05T12:28:37.742Z,0.87
2017-08-05T12:31:05.193Z,1.10
2017-08-05T12:33:32.649Z,0.70
2017-08-05T12:36:01.748Z,0.77
2017-08-05T12:38:29.193Z,0.70
2017-08-05T12:40:57.427Z,1.10
2017-08-05T12:43:24.881Z,1.67
2017-08-05T12:45:52.338Z,1.30
2017-08-05T12:48:19.803Z,1.10
2017-08-05T12:50:48.233Z,1.20
2017-08-05T12:53:15.690Z,1.47
2017-08-05T12:55:43.133Z,1.43
2017-08-05T12:58:10.594Z,1.20
2017-08-05T13:00:38.057Z,1.20
2017-08-05T13:03:05.523Z,1.40
2017-08-05T13:05:32.981Z,1.33
2017-08-05T13:08:00.414Z,1.30
2017-08-05T13:10:27.847Z,1.17
2017-08-05T13:12:56.068Z,1.47
2017-08-05T13:15:23.528Z,1.40
2017-08-05T13:17:51.005Z,1.40
2017-08-05T13:20:18.457Z,1.50
2017-08-05T13:22:45.917Z,1.50
2017-08-05T13:25:13.385Z,1.37
2017-08-05T13:27:40.835Z,1.23
2017-08-05T13:30:08.288Z,1.40
2017-08-05T13:32:35.744Z,1.20
2017-08-05T13:35:03.225Z,1.50
2017-08-05T13:37:30.676Z,1.50
2017-08-05T13:39:58.121Z,1.20
2017-08-05T13:42:29.593Z,1.73
2017-08-05T13:44:57.052Z,1.43
2017-08-05T13:47:24.513Z,2.00
2017-08-05T13:49:51.972Z,2.27
2017-08-05T13:52:20.197Z,2.57
2017-08-05T13:54:47.652Z,2.83
2017-08-05T13:57:15.119Z,2.60
2017-08-05T13:59:42.568Z,3.00
2017-08-05T14:02:10.024Z,2.23
2017-08-05T14:04:37.488Z,2.37
2017-08-05T14:07:04.953Z,3.03
2017-08-05T14:09:32.409Z,2.07
2017-08-05T14:11:59.860Z,1.93
2017-08-05T14:14:27.311Z,2.23
2017-08-05T14:16:55.537Z,2.00
2017-08-05T14:19:23.022Z,1.83
2017-08-05T14:21:50.469Z,1.90
2017-08-05T14:24:17.929Z,1.53
2017-08-05T14:26:45.393Z,1.90
2017-08-05T14:29:12.840Z,1.60
2017-08-05T14:31:40.296Z,1.60
2017-08-05T14:34:07.761Z,2.07
2017-08-05T14:36:35.221Z,1.50
2017-08-05T14:39:02.679Z,1.70
2017-08-05T14:41:30.120Z,1.90
2017-08-05T14:43:58.357Z,1.20
2017-08-05T14:46:25.813Z,1.47
2017-08-05T14:48:53.280Z,1.60
2017-08-05T14:51:20.732Z,1.60
2017-08-05T14:53:48.189Z,1.40
2017-08-05T14:56:15.649Z,1.50
2017-08-05T14:58:43.105Z,1.50
2017-08-05T15:01:10.568Z,1.70
2017-08-05T15:03:38.017Z,1.60
2017-08-05T15:06:05.481Z,1.87
2017-08-05T15:08:32.932Z,1.60
2017-08-05T15:11:00.397Z,1.60
2017-08-05T15:13:27.845Z,1.80
2017-08-05T15:15:56.069Z,2.50
2017-08-05T15:18:23.521Z,1.60
2017-08-05T15:20:50.985Z,1.80
2017-08-05T15:23:18.448Z,2.13
2017-08-05T15:25:45.908Z,2.00
2017-08-05T15:28:13.373Z,1.70
2017-08-05T15:30:40.831Z,1.90
2017-08-05T15:33:08.277Z,2.27
2017-08-05T15:35:35.733Z,1.63
2017-08-05T15:38:03.970Z,1.93
2017-08-05T15:40:31.405Z,1.87
2017-08-05T15:42:58.876Z,1.77
2017-08-05T15:45:26.333Z,1.67
2017-08-05T15:47:53.783Z,1.93
2017-08-05T15:50:21.242Z,2.00
2017-08-05T15:52:48.685Z,2.13
2017-08-05T15:55:16.909Z,2.07
2017-08-05T15:57:44.355Z,1.90
2017-08-05T16:00:11.814Z,1.63
2017-08-05T16:02:39.268Z,2.00
2017-08-05T16:05:06.721Z,1.80
2017-08-05T16:07:34.956Z,1.90
2017-08-05T16:10:02.409Z,2.43
2017-08-05T16:12:29.870Z,2.40
2017-08-05T16:14:57.328Z,2.10
2017-08-05T16:17:24.784Z,2.53
2017-08-05T16:19:52.276Z,2.37
2017-08-05T16:22:19.728Z,2.87
2017-08-05T16:24:47.189Z,1.80
2017-08-05T16:27:14.636Z,2.03
2017-08-05T16:29:42.096Z,2.90
2017-08-05T16:32:09.539Z,2.90
2017-08-05T16:34:36.997Z,2.60
2017-08-05T16:37:04.445Z,1.87
2017-08-05T16:39:32.680Z,2.53
2017-08-05T16:42:00.119Z,2.30
2017-08-05T16:44:27.772Z,2.20
2017-08-05T16:46:55.229Z,2.20
2017-08-05T16:49:22.680Z,2.23
2017-08-05T16:51:50.904Z,2.30
2017-08-05T16:54:18.356Z,1.87
2017-08-05T16:56:45.819Z,1.50
2017-08-05T16:59:13.276Z,2.40
2017-08-05T17:01:40.740Z,2.23
2017-08-05T17:04:08.186Z,2.23
2017-08-05T17:06:35.629Z,1.80
2017-08-05T17:09:03.849Z,2.07
2017-08-05T17:11:31.313Z,2.17
2017-08-05T17:13:58.772Z,2.50
2017-08-05T17:16:26.237Z,2.10
2017-08-05T17:18:53.695Z,2.43
2017-08-05T17:21:21.140Z,2.70
2017-08-05T17:23:48.610Z,2.10
2017-08-05T17:26:16.057Z,2.00
2017-08-05T17:28:44.276Z,1.70
2017-08-05T17:31:11.729Z,2.33
2017-08-05T17:33:39.189Z,2.00
2017-08-05T17:36:06.645Z,2.07
2017-08-05T17:38:34.100Z,2.40
2017-08-05T17:41:01.557Z,2.60
2017-08-05T17:43:29.009Z,1.90
2017-08-05T17:45:57.233Z,2.80
2017-08-05T17:48:24.698Z,2.17
2017-08-05T17:50:52.149Z,2.30
2017-08-05T17:53:19.608Z,2.60
2017-08-05T17:55:47.061Z,2.27
2017-08-05T17:58:14.521Z,2.20
2017-08-05T18:00:41.974Z,2.20
2017-08-05T18:03:09.432Z,3.00
2017-08-05T18:05:37.658Z,2.47
2017-08-05T18:08:05.125Z,2.50
2017-08-05T18:10:32.580Z,2.50
2017-08-05T18:13:00.028Z,2.40
2017-08-05T18:15:27.487Z,2.07
2017-08-05T18:17:54.936Z,1.90
2017-08-05T18:20:22.391Z,3.00
2017-08-05T18:22:50.613Z,2.27
2017-08-05T18:25:18.069Z,2.83
2017-08-05T18:27:46.625Z,2.83
2017-08-05T18:30:14.072Z,2.90
2017-08-05T18:32:42.280Z,2.97
2017-08-05T18:35:09.724Z,2.97
2017-08-05T18:37:37.935Z,2.73
2017-08-05T18:40:05.379Z,3.33
2017-08-05T18:42:32.841Z,2.90
2017-08-05T18:45:00.285Z,3.10
2017-08-05T18:47:28.513Z,2.60
2017-08-05T18:49:57.581Z,3.10
2017-08-05T18:52:25.044Z,3.23
2017-08-05T18:54:52.500Z,3.30
2017-08-05T18:57:19.960Z,3.33
2017-08-05T18:59:47.420Z,3.03
2017-08-05T19:02:15.644Z,3.37
2017-08-05T19:04:43.109Z,3.37
2017-08-05T19:07:10.565Z,2.53
2017-08-05T19:09:38.011Z,3.60
2017-08-05T19:12:05.461Z,3.10
2017-08-05T19:14:32.917Z,4.17
2017-08-05T19:17:01.141Z,3.00
2017-08-05T19:19:28.584Z,3.30
2017-08-05T19:21:56.046Z,2.80
2017-08-05T19:24:23.512Z,4.00
2017-08-05T19:26:50.974Z,4.00
2017-08-05T19:29:18.437Z,4.13
2017-08-05T19:31:45.897Z,3.10
2017-08-05T19:34:13.400Z,4.40
2017-08-05T19:36:40.849Z,4.67
2017-08-05T19:39:08.307Z,3.90
2017-08-05T19:41:35.748Z,4.70
2017-08-05T19:44:03.213Z,4.37
2017-08-05T19:46:30.675Z,3.40
2017-08-05T19:48:58.129Z,3.60
2017-08-05T19:51:25.585Z,4.77
2017-08-05T19:53:53.027Z,3.60
2017-08-05T19:56:21.248Z,5.00
2017-08-05T19:58:48.706Z,5.43
2017-08-05T20:01:16.165Z,6.13
2017-08-05T20:03:43.618Z,7.30
2017-08-05T20:06:11.077Z,6.60
2017-08-05T20:08:38.533Z,5.67
2017-08-05T20:11:05.996Z,6.10
2017-08-05T20:13:34.210Z,6.47
2017-08-05T20:16:01.660Z,5.20
2017-08-05T20:18:29.121Z,5.77
2017-08-05T20:20:56.578Z,6.13
2017-08-05T20:23:24.036Z,6.20
2017-08-05T20:25:51.492Z,6.13
2017-08-05T20:28:18.954Z,5.40
2017-08-05T20:30:46.412Z,5.47
2017-08-05T20:33:13.905Z,7.07
2017-08-05T20:35:41.362Z,6.47
2017-08-05T20:38:08.817Z,5.17
2017-08-05T20:40:36.268Z,6.00
2017-08-05T20:43:03.725Z,5.30
2017-08-05T20:45:31.928Z,4.70
2017-08-05T20:47:59.381Z,5.43
2017-08-05T20:50:26.820Z,5.23
2017-08-05T20:52:55.045Z,4.57
2017-08-05T20:55:22.504Z,5.27
2017-08-05T20:57:49.989Z,5.47
2017-08-05T21:00:17.442Z,4.17
2017-08-05T21:02:44.910Z,6.60
2017-08-05T21:05:12.388Z,5.47
2017-08-05T21:07:39.841Z,5.23
2017-08-05T21:10:07.305Z,5.17
2017-08-05T21:12:34.752Z,6.37
2017-08-05T21:15:02.217Z,6.40
2017-08-05T21:17:29.668Z,6.77
2017-08-05T21:19:57.125Z,4.90
2017-08-05T21:22:24.585Z,5.23
2017-08-05T21:24:52.038Z,4.80
2017-08-05T21:27:19.516Z,5.17
2017-08-05T21:29:46.977Z,5.73
2017-08-05T21:32:14.448Z,5.33
2017-08-05T21:34:41.906Z,4.70
2017-08-05T21:37:09.368Z,4.30
2017-08-05T21:39:36.824Z,4.33
2017-08-05T21:42:04.273Z,4.83
2017-08-05T21:44:31.733Z,5.60
2017-08-05T21:46:59.196Z,6.20
2017-08-05T21:49:26.690Z,6.03
2017-08-05T21:51:54.137Z,5.43
2017-08-05T21:54:21.631Z,5.50
2017-08-05T21:56:49.133Z,4.93
2017-08-05T21:59:17.348Z,4.93
2017-08-05T22:01:44.809Z,5.43
2017-08-05T22:06:48.996Z,4.87
2017-08-05T22:09:17.309Z,4.80
2017-08-05T22:11:44.765Z,5.30
2017-08-05T22:14:12.224Z,4.37
2017-08-05T22:16:40.457Z,4.47
2017-08-05T22:19:07.916Z,4.13
2017-08-05T22:21:35.364Z,4.37
2017-08-05T22:24:02.821Z,4.57
2017-08-05T22:26:30.290Z,5.37
2017-08-05T22:28:57.745Z,4.80
2017-08-05T22:31:25.197Z,5.07
2017-08-05T22:33:52.665Z,4.53
2017-08-05T22:36:20.124Z,4.50
2017-08-05T22:38:47.581Z,4.60
2017-08-05T22:41:16.617Z,5.20
2017-08-05T22:43:44.069Z,5.00
2017-08-05T22:46:11.552Z,6.10
2017-08-05T22:48:39.033Z,5.37
2017-08-05T22:51:06.494Z,6.23
2017-08-05T22:53:34.879Z,4.80
2017-08-05T22:56:02.332Z,5.20
2017-08-05T22:58:29.788Z,5.87
2017-08-05T23:00:57.245Z,5.70
2017-08-05T23:03:24.705Z,5.03
2017-08-05T23:05:52.174Z,5.87
2017-08-05T23:08:19.634Z,6.53
2017-08-05T23:10:47.088Z,5.90
2017-08-05T23:13:14.536Z,6.27
2017-08-05T23:15:41.990Z,5.70
2017-08-05T23:18:09.438Z,6.43
2017-08-05T23:20:36.897Z,5.43
2017-08-05T23:23:05.111Z,7.20
2017-08-05T23:25:32.568Z,6.53
2017-08-05T23:28:00.014Z,7.40
2017-08-05T23:30:27.476Z,5.93
2017-08-05T23:32:54.923Z,6.57
2017-08-05T23:35:23.142Z,6.60
2017-08-05T23:37:50.601Z,6.90
2017-08-05T23:40:18.093Z,5.90
2017-08-05T23:42:45.588Z,5.43
2017-08-05T23:45:13.797Z,6.10
2017-08-05T23:47:41.270Z,5.10
2017-08-05T23:50:08.725Z,5.37
2017-08-05T23:52:36.180Z,4.77
2017-08-05T23:55:03.662Z,4.10
2017-08-05T23:57:31.112Z,4.87
2017-08-05T23:59:58.570Z,4.30
